sensor_id;sensor_type;location;lat;lon;timestamp;pressure;altitude;pressure_sealevel;temperature;humidity
21545;BME280;10933;50.754;11.508;2023-12-04T00:02:17;100022.41;;;-2.41;nan
21545;BME280;10933;50.754;11.508;2023-12-04T00:04:43;100024.22;;;-2.41;nan
21545;BME280;10933;50.754;11.508;2023-12-04T00:07:09;100021.13;;;-1.94;nan
21545;BME280;10933;50.754;11.508;2023-12-04T00:09:35;100021.41;;;-2.05;nan
21545;BME280;10933;50.754;11.508;2023-12-04T00:12:01;100023.31;;;-1.90;nan
21545;BME280;10933;50.754;11.508;2023-12-04T00:14:27;100028.38;;;-1.62;nan
21545;BME280;10933;50.754;11.508;2023-12-04T00:16:53;100015.69;;;-1.93;nan
21545;BME280;10933;50.754;11.508;2023-12-04T00:19:19;100016.22;;;-1.89;nan
21545;BME280;10933;50.754;11.508;2023-12-04T00:21:45;100002.69;;;-1.86;nan
21545;BME280;10933;50.754;11.508;2023-12-04T00:24:12;100007.09;;;-2.03;nan
21545;BME280;10933;50.754;11.508;2023-12-04T00:26:38;100012.44;;;-1.79;nan
21545;BME280;10933;50.754;11.508;2023-12-04T00:29:04;100002.22;;;-1.65;nan
21545;BME280;10933;50.754;11.508;2023-12-04T00:31:30;99991.91;;;-1.93;nan
21545;BME280;10933;50.754;11.508;2023-12-04T00:33:57;99990.56;;;-2.39;nan
21545;BME280;10933;50.754;11.508;2023-12-04T00:36:23;99995.25;;;-2.77;nan
21545;BME280;10933;50.754;11.508;2023-12-04T00:38:49;99998.50;;;-2.57;nan
21545;BME280;10933;50.754;11.508;2023-12-04T00:41:16;99997.59;;;-2.74;nan
21545;BME280;10933;50.754;11.508;2023-12-04T00:43:42;100007.47;;;-2.50;nan
21545;BME280;10933;50.754;11.508;2023-12-04T00:46:08;99999.31;;;-2.30;nan
21545;BME280;10933;50.754;11.508;2023-12-04T00:48:34;99994.44;;;-2.51;nan
21545;BME280;10933;50.754;11.508;2023-12-04T00:51:00;99979.56;;;-3.22;nan
21545;BME280;10933;50.754;11.508;2023-12-04T00:53:26;99982.97;;;-2.60;nan
21545;BME280;10933;50.754;11.508;2023-12-04T00:55:52;99999.16;;;-2.63;nan
21545;BME280;10933;50.754;11.508;2023-12-04T00:58:18;99995.41;;;-2.18;nan
21545;BME280;10933;50.754;11.508;2023-12-04T01:00:44;99989.72;;;-2.40;nan
21545;BME280;10933;50.754;11.508;2023-12-04T01:03:10;100000.53;;;-2.51;nan
21545;BME280;10933;50.754;11.508;2023-12-04T01:05:37;99982.63;;;-2.91;nan
21545;BME280;10933;50.754;11.508;2023-12-04T01:08:03;100001.69;;;-2.53;nan
21545;BME280;10933;50.754;11.508;2023-12-04T01:10:29;100003.34;;;-2.26;nan
21545;BME280;10933;50.754;11.508;2023-12-04T01:12:55;99999.22;;;-1.87;nan
21545;BME280;10933;50.754;11.508;2023-12-04T01:15:21;100001.25;;;-1.64;nan
21545;BME280;10933;50.754;11.508;2023-12-04T01:17:49;99987.25;;;-1.99;nan
21545;BME280;10933;50.754;11.508;2023-12-04T01:20:15;99986.94;;;-1.96;nan
21545;BME280;10933;50.754;11.508;2023-12-04T01:22:42;99974.09;;;-2.25;nan
21545;BME280;10933;50.754;11.508;2023-12-04T01:25:08;99961.28;;;-2.46;nan
21545;BME280;10933;50.754;11.508;2023-12-04T01:27:34;99972.22;;;-2.41;nan
21545;BME280;10933;50.754;11.508;2023-12-04T01:30:05;99976.06;;;-1.85;nan
21545;BME280;10933;50.754;11.508;2023-12-04T01:32:32;99973.28;;;-2.17;nan
21545;BME280;10933;50.754;11.508;2023-12-04T01:34:58;99964.91;;;-2.04;nan
21545;BME280;10933;50.754;11.508;2023-12-04T01:37:24;99953.59;;;-1.89;nan
21545;BME280;10933;50.754;11.508;2023-12-04T01:39:50;99932.13;;;-2.62;nan
21545;BME280;10933;50.754;11.508;2023-12-04T01:42:16;99930.56;;;-2.47;nan
21545;BME280;10933;50.754;11.508;2023-12-04T01:44:42;99918.78;;;-2.60;nan
21545;BME280;10933;50.754;11.508;2023-12-04T01:47:09;99914.97;;;-2.66;nan
21545;BME280;10933;50.754;11.508;2023-12-04T01:49:36;99901.88;;;-3.02;nan
21545;BME280;10933;50.754;11.508;2023-12-04T01:52:02;99925.91;;;-2.53;nan
21545;BME280;10933;50.754;11.508;2023-12-04T01:54:30;99907.28;;;-2.51;nan
21545;BME280;10933;50.754;11.508;2023-12-04T01:56:57;99893.34;;;-2.61;nan
21545;BME280;10933;50.754;11.508;2023-12-04T01:59:25;99888.34;;;-2.39;nan
21545;BME280;10933;50.754;11.508;2023-12-04T02:01:52;99889.94;;;-2.54;nan
21545;BME280;10933;50.754;11.508;2023-12-04T02:04:19;99885.31;;;-2.52;nan
21545;BME280;10933;50.754;11.508;2023-12-04T02:06:45;99891.19;;;-2.66;nan
21545;BME280;10933;50.754;11.508;2023-12-04T02:09:11;99903.41;;;-2.65;nan
21545;BME280;10933;50.754;11.508;2023-12-04T02:11:39;99892.19;;;-2.59;nan
21545;BME280;10933;50.754;11.508;2023-12-04T02:14:06;99881.34;;;-2.82;nan
21545;BME280;10933;50.754;11.508;2023-12-04T02:16:36;99888.03;;;-2.96;nan
21545;BME280;10933;50.754;11.508;2023-12-04T02:19:05;99883.22;;;-2.74;nan
21545;BME280;10933;50.754;11.508;2023-12-04T02:21:32;99885.09;;;-2.58;nan
21545;BME280;10933;50.754;11.508;2023-12-04T02:23:58;99889.16;;;-2.72;nan
21545;BME280;10933;50.754;11.508;2023-12-04T02:26:28;99885.41;;;-2.27;nan
21545;BME280;10933;50.754;11.508;2023-12-04T02:29:00;99889.72;;;-2.26;nan
21545;BME280;10933;50.754;11.508;2023-12-04T02:31:30;99888.44;;;-1.98;nan
21545;BME280;10933;50.754;11.508;2023-12-04T02:33:57;99896.44;;;-1.65;nan
21545;BME280;10933;50.754;11.508;2023-12-04T02:36:26;99894.47;;;-1.47;nan
21545;BME280;10933;50.754;11.508;2023-12-04T02:38:53;99890.31;;;-1.09;nan
21545;BME280;10933;50.754;11.508;2023-12-04T02:41:19;99884.88;;;-1.32;nan
21545;BME280;10933;50.754;11.508;2023-12-04T02:43:45;99892.66;;;-1.14;nan
21545;BME280;10933;50.754;11.508;2023-12-04T02:46:12;99889.78;;;-0.88;nan
21545;BME280;10933;50.754;11.508;2023-12-04T02:48:38;99888.81;;;-0.95;nan
21545;BME280;10933;50.754;11.508;2023-12-04T02:51:04;99874.63;;;-1.59;nan
21545;BME280;10933;50.754;11.508;2023-12-04T02:53:31;99882.88;;;-1.46;nan
21545;BME280;10933;50.754;11.508;2023-12-04T02:55:57;99884.38;;;-1.35;nan
21545;BME280;10933;50.754;11.508;2023-12-04T02:58:23;99876.09;;;-1.73;nan
21545;BME280;10933;50.754;11.508;2023-12-04T03:00:49;99870.59;;;-1.96;nan
21545;BME280;10933;50.754;11.508;2023-12-04T03:03:15;99882.22;;;-1.40;nan
21545;BME280;10933;50.754;11.508;2023-12-04T03:05:41;99877.09;;;-1.25;nan
21545;BME280;10933;50.754;11.508;2023-12-04T03:08:07;99871.97;;;-1.10;nan
21545;BME280;10933;50.754;11.508;2023-12-04T03:10:33;99857.16;;;-0.80;nan
21545;BME280;10933;50.754;11.508;2023-12-04T03:13:00;99862.25;;;-0.71;nan
21545;BME280;10933;50.754;11.508;2023-12-04T03:15:26;99861.84;;;-0.51;nan
21545;BME280;10933;50.754;11.508;2023-12-04T03:17:54;99869.09;;;-0.37;nan
21545;BME280;10933;50.754;11.508;2023-12-04T03:20:20;99871.41;;;-0.34;nan
21545;BME280;10933;50.754;11.508;2023-12-04T03:22:47;99858.91;;;-0.65;nan
21545;BME280;10933;50.754;11.508;2023-12-04T03:25:13;99857.56;;;-1.16;nan
21545;BME280;10933;50.754;11.508;2023-12-04T03:27:39;99856.50;;;-0.91;nan
21545;BME280;10933;50.754;11.508;2023-12-04T03:30:05;99861.81;;;-0.91;nan
21545;BME280;10933;50.754;11.508;2023-12-04T03:32:32;99848.09;;;-0.94;nan
21545;BME280;10933;50.754;11.508;2023-12-04T03:34:58;99855.25;;;-1.11;nan
21545;BME280;10933;50.754;11.508;2023-12-04T03:37:24;99850.13;;;-1.21;nan
21545;BME280;10933;50.754;11.508;2023-12-04T03:39:51;99851.69;;;-0.79;nan
21545;BME280;10933;50.754;11.508;2023-12-04T03:42:17;99858.22;;;-0.50;nan
21545;BME280;10933;50.754;11.508;2023-12-04T03:44:43;99855.50;;;-0.34;nan
21545;BME280;10933;50.754;11.508;2023-12-04T03:47:09;99842.06;;;-0.80;nan
21545;BME280;10933;50.754;11.508;2023-12-04T03:49:35;99842.97;;;-0.96;nan
21545;BME280;10933;50.754;11.508;2023-12-04T03:52:01;99856.97;;;-0.71;nan
21545;BME280;10933;50.754;11.508;2023-12-04T03:54:27;99851.44;;;-1.00;nan
21545;BME280;10933;50.754;11.508;2023-12-04T03:56:53;99855.75;;;-0.60;nan
21545;BME280;10933;50.754;11.508;2023-12-04T03:59:19;99851.81;;;-0.25;nan
21545;BME280;10933;50.754;11.508;2023-12-04T04:01:45;99841.25;;;-0.41;nan
21545;BME280;10933;50.754;11.508;2023-12-04T04:04:11;99820.59;;;-0.93;nan
21545;BME280;10933;50.754;11.508;2023-12-04T04:06:37;99830.03;;;-0.51;nan
21545;BME280;10933;50.754;11.508;2023-12-04T04:09:05;99816.09;;;-0.37;nan
21545;BME280;10933;50.754;11.508;2023-12-04T04:11:31;99806.38;;;-0.53;nan
21545;BME280;10933;50.754;11.508;2023-12-04T04:13:57;99816.16;;;-0.53;nan
21545;BME280;10933;50.754;11.508;2023-12-04T04:16:23;99805.59;;;-0.62;nan
21545;BME280;10933;50.754;11.508;2023-12-04T04:18:49;99818.03;;;-0.31;nan
21545;BME280;10933;50.754;11.508;2023-12-04T04:21:16;99812.88;;;-0.64;nan
21545;BME280;10933;50.754;11.508;2023-12-04T04:23:42;99818.75;;;-0.45;nan
21545;BME280;10933;50.754;11.508;2023-12-04T04:26:08;99819.03;;;-0.32;nan
21545;BME280;10933;50.754;11.508;2023-12-04T04:28:34;99822.19;;;-0.06;nan
21545;BME280;10933;50.754;11.508;2023-12-04T04:31:00;99818.56;;;-0.13;nan
21545;BME280;10933;50.754;11.508;2023-12-04T04:33:26;99814.75;;;-0.10;nan
21545;BME280;10933;50.754;11.508;2023-12-04T04:35:52;99800.56;;;-0.48;nan
21545;BME280;10933;50.754;11.508;2023-12-04T04:38:18;99795.72;;;-0.76;nan
21545;BME280;10933;50.754;11.508;2023-12-04T04:40:44;99800.94;;;-0.60;nan
21545;BME280;10933;50.754;11.508;2023-12-04T04:43:11;99800.84;;;-0.74;nan
21545;BME280;10933;50.754;11.508;2023-12-04T04:45:37;99799.06;;;-0.82;nan
21545;BME280;10933;50.754;11.508;2023-12-04T04:48:03;99798.06;;;-0.81;nan
21545;BME280;10933;50.754;11.508;2023-12-04T04:50:29;99778.34;;;-1.26;nan
21545;BME280;10933;50.754;11.508;2023-12-04T04:52:55;99772.25;;;-1.26;nan
21545;BME280;10933;50.754;11.508;2023-12-04T04:55:21;99773.06;;;-1.26;nan
21545;BME280;10933;50.754;11.508;2023-12-04T04:57:47;99761.78;;;-1.20;nan
21545;BME280;10933;50.754;11.508;2023-12-04T05:00:13;99763.09;;;-1.15;nan
21545;BME280;10933;50.754;11.508;2023-12-04T05:02:41;99765.25;;;-1.11;nan
21545;BME280;10933;50.754;11.508;2023-12-04T05:05:08;99754.38;;;-1.32;nan
21545;BME280;10933;50.754;11.508;2023-12-04T05:07:34;99751.56;;;-1.31;nan
21545;BME280;10933;50.754;11.508;2023-12-04T05:10:00;99750.94;;;-1.65;nan
21545;BME280;10933;50.754;11.508;2023-12-04T05:12:26;99746.00;;;-1.52;nan
21545;BME280;10933;50.754;11.508;2023-12-04T05:14:52;99743.19;;;-1.51;nan
21545;BME280;10933;50.754;11.508;2023-12-04T05:17:18;99734.41;;;-1.51;nan
21545;BME280;10933;50.754;11.508;2023-12-04T05:19:44;99723.31;;;-1.46;nan
21545;BME280;10933;50.754;11.508;2023-12-04T05:22:10;99731.78;;;-1.51;nan
21545;BME280;10933;50.754;11.508;2023-12-04T05:24:36;99720.19;;;-1.50;nan
21545;BME280;10933;50.754;11.508;2023-12-04T05:27:03;99718.72;;;-1.69;nan
21545;BME280;10933;50.754;11.508;2023-12-04T05:29:29;99714.75;;;-1.57;nan
21545;BME280;10933;50.754;11.508;2023-12-04T05:31:55;99708.63;;;-1.65;nan
21545;BME280;10933;50.754;11.508;2023-12-04T05:34:23;99713.56;;;-1.54;nan
21545;BME280;10933;50.754;11.508;2023-12-04T05:36:49;99712.25;;;-1.50;nan
21545;BME280;10933;50.754;11.508;2023-12-04T05:39:15;99703.72;;;-2.17;nan
21545;BME280;10933;50.754;11.508;2023-12-04T05:41:41;99703.25;;;-2.21;nan
21545;BME280;10933;50.754;11.508;2023-12-04T05:44:07;99717.91;;;-1.69;nan
21545;BME280;10933;50.754;11.508;2023-12-04T05:46:33;99714.25;;;-1.68;nan
21545;BME280;10933;50.754;11.508;2023-12-04T05:48:59;99706.03;;;-1.73;nan
21545;BME280;10933;50.754;11.508;2023-12-04T05:51:25;99704.84;;;-1.71;nan
21545;BME280;10933;50.754;11.508;2023-12-04T05:53:51;99704.63;;;-1.45;nan
21545;BME280;10933;50.754;11.508;2023-12-04T05:56:17;99700.34;;;-1.54;nan
21545;BME280;10933;50.754;11.508;2023-12-04T05:58:43;99702.16;;;-1.46;nan
21545;BME280;10933;50.754;11.508;2023-12-04T06:01:10;99693.09;;;-1.52;nan
21545;BME280;10933;50.754;11.508;2023-12-04T06:03:36;99696.69;;;-1.53;nan
21545;BME280;10933;50.754;11.508;2023-12-04T06:06:02;99694.22;;;-1.55;nan
21545;BME280;10933;50.754;11.508;2023-12-04T06:08:28;99679.22;;;-1.62;nan
21545;BME280;10933;50.754;11.508;2023-12-04T06:10:54;99682.16;;;-1.49;nan
21545;BME280;10933;50.754;11.508;2023-12-04T06:13:20;99667.47;;;-1.52;nan
21545;BME280;10933;50.754;11.508;2023-12-04T06:15:46;99669.84;;;-1.26;nan
21545;BME280;10933;50.754;11.508;2023-12-04T06:18:12;99668.31;;;-1.20;nan
21545;BME280;10933;50.754;11.508;2023-12-04T06:20:38;99671.13;;;-1.13;nan
21545;BME280;10933;50.754;11.508;2023-12-04T06:23:05;99664.41;;;-1.40;nan
21545;BME280;10933;50.754;11.508;2023-12-04T06:25:31;99670.13;;;-1.21;nan
21545;BME280;10933;50.754;11.508;2023-12-04T06:27:57;99660.94;;;-1.33;nan
21545;BME280;10933;50.754;11.508;2023-12-04T06:30:24;99655.44;;;-1.23;nan
21545;BME280;10933;50.754;11.508;2023-12-04T06:32:50;99664.50;;;-1.17;nan
21545;BME280;10933;50.754;11.508;2023-12-04T06:35:17;99664.75;;;-1.04;nan
21545;BME280;10933;50.754;11.508;2023-12-04T06:37:44;99664.13;;;-1.06;nan
21545;BME280;10933;50.754;11.508;2023-12-04T06:40:11;99664.28;;;-1.08;nan
21545;BME280;10933;50.754;11.508;2023-12-04T06:42:38;99656.44;;;-1.24;nan
21545;BME280;10933;50.754;11.508;2023-12-04T06:45:05;99657.44;;;-1.25;nan
21545;BME280;10933;50.754;11.508;2023-12-04T06:47:32;99658.69;;;-1.52;nan
21545;BME280;10933;50.754;11.508;2023-12-04T06:49:59;99666.91;;;-1.39;nan
21545;BME280;10933;50.754;11.508;2023-12-04T06:52:25;99672.41;;;-1.09;nan
21545;BME280;10933;50.754;11.508;2023-12-04T06:54:52;99669.38;;;-0.98;nan
21545;BME280;10933;50.754;11.508;2023-12-04T06:57:18;99669.81;;;-0.86;nan
21545;BME280;10933;50.754;11.508;2023-12-04T06:59:44;99665.41;;;-1.02;nan
21545;BME280;10933;50.754;11.508;2023-12-04T07:02:10;99662.59;;;-1.01;nan
21545;BME280;10933;50.754;11.508;2023-12-04T07:04:36;99660.00;;;-1.48;nan
21545;BME280;10933;50.754;11.508;2023-12-04T07:07:02;99660.91;;;-1.25;nan
21545;BME280;10933;50.754;11.508;2023-12-04T07:09:34;99664.75;;;-1.04;nan
21545;BME280;10933;50.754;11.508;2023-12-04T07:12:00;99669.03;;;-0.95;nan
21545;BME280;10933;50.754;11.508;2023-12-04T07:14:26;99662.72;;;-0.94;nan
21545;BME280;10933;50.754;11.508;2023-12-04T07:16:52;99660.84;;;-1.16;nan
21545;BME280;10933;50.754;11.508;2023-12-04T07:19:19;99657.56;;;-1.19;nan
21545;BME280;10933;50.754;11.508;2023-12-04T07:21:46;99663.84;;;-1.20;nan
21545;BME280;10933;50.754;11.508;2023-12-04T07:24:12;99678.34;;;-0.76;nan
21545;BME280;10933;50.754;11.508;2023-12-04T07:26:38;99680.81;;;-0.52;nan
21545;BME280;10933;50.754;11.508;2023-12-04T07:29:04;99687.91;;;-0.44;nan
21545;BME280;10933;50.754;11.508;2023-12-04T07:31:30;99679.97;;;-0.44;nan
21545;BME280;10933;50.754;11.508;2023-12-04T07:33:57;99680.19;;;-0.31;nan
21545;BME280;10933;50.754;11.508;2023-12-04T07:36:23;99674.59;;;-0.36;nan
21545;BME280;10933;50.754;11.508;2023-12-04T07:38:50;99658.22;;;-0.85;nan
21545;BME280;10933;50.754;11.508;2023-12-04T07:41:18;99654.34;;;-1.37;nan
21545;BME280;10933;50.754;11.508;2023-12-04T07:43:44;99661.19;;;-1.20;nan
21545;BME280;10933;50.754;11.508;2023-12-04T07:46:11;99659.28;;;-0.72;nan
21545;BME280;10933;50.754;11.508;2023-12-04T07:48:40;99675.47;;;-0.21;nan
21545;BME280;10933;50.754;11.508;2023-12-04T07:51:06;99673.88;;;-0.30;nan
21545;BME280;10933;50.754;11.508;2023-12-04T07:53:33;99673.00;;;-0.22;nan
21545;BME280;10933;50.754;11.508;2023-12-04T07:56:02;99678.28;;;0.01;nan
21545;BME280;10933;50.754;11.508;2023-12-04T07:58:31;99667.53;;;-0.21;nan
21545;BME280;10933;50.754;11.508;2023-12-04T08:00:58;99676.09;;;0.19;nan
21545;BME280;10933;50.754;11.508;2023-12-04T08:03:24;99668.78;;;0.06;nan
21545;BME280;10933;50.754;11.508;2023-12-04T08:05:51;99672.19;;;0.44;nan
21545;BME280;10933;50.754;11.508;2023-12-04T08:08:17;99668.34;;;0.32;nan
21545;BME280;10933;50.754;11.508;2023-12-04T08:10:44;99669.66;;;-0.02;nan
21545;BME280;10933;50.754;11.508;2023-12-04T08:13:10;99670.81;;;0.19;nan
21545;BME280;10933;50.754;11.508;2023-12-04T08:15:36;99665.66;;;0.03;nan
21545;BME280;10933;50.754;11.508;2023-12-04T08:18:02;99678.97;;;0.62;nan
21545;BME280;10933;50.754;11.508;2023-12-04T08:20:28;99676.69;;;0.44;nan
21545;BME280;10933;50.754;11.508;2023-12-04T08:22:54;99694.97;;;0.83;nan
21545;BME280;10933;50.754;11.508;2023-12-04T08:25:21;99661.94;;;0.71;nan
21545;BME280;10933;50.754;11.508;2023-12-04T08:27:47;99681.31;;;0.86;nan
21545;BME280;10933;50.754;11.508;2023-12-04T08:30:15;99670.38;;;1.10;nan
21545;BME280;10933;50.754;11.508;2023-12-04T08:32:41;99668.00;;;1.37;nan
21545;BME280;10933;50.754;11.508;2023-12-04T08:35:07;99668.34;;;1.12;nan
21545;BME280;10933;50.754;11.508;2023-12-04T08:37:34;99667.41;;;1.56;nan
21545;BME280;10933;50.754;11.508;2023-12-04T08:40:00;99674.97;;;2.02;nan
21545;BME280;10933;50.754;11.508;2023-12-04T08:42:26;99660.72;;;1.88;nan
21545;BME280;10933;50.754;11.508;2023-12-04T08:44:52;99660.09;;;2.14;nan
21545;BME280;10933;50.754;11.508;2023-12-04T08:47:18;99650.53;;;1.92;nan
21545;BME280;10933;50.754;11.508;2023-12-04T08:49:44;99654.66;;;1.52;nan
21545;BME280;10933;50.754;11.508;2023-12-04T08:52:11;99661.53;;;1.03;nan
21545;BME280;10933;50.754;11.508;2023-12-04T08:54:40;99649.16;;;1.32;nan
21545;BME280;10933;50.754;11.508;2023-12-04T08:57:07;99666.19;;;1.59;nan
21545;BME280;10933;50.754;11.508;2023-12-04T08:59:34;99659.66;;;1.83;nan
21545;BME280;10933;50.754;11.508;2023-12-04T09:02:00;99663.47;;;1.95;nan
21545;BME280;10933;50.754;11.508;2023-12-04T09:04:30;99666.63;;;2.05;nan
21545;BME280;10933;50.754;11.508;2023-12-04T09:06:57;99673.50;;;2.55;nan
21545;BME280;10933;50.754;11.508;2023-12-04T09:09:23;99660.16;;;2.49;nan
21545;BME280;10933;50.754;11.508;2023-12-04T09:11:49;99661.63;;;2.58;nan
21545;BME280;10933;50.754;11.508;2023-12-04T09:14:15;99660.53;;;2.80;nan
21545;BME280;10933;50.754;11.508;2023-12-04T09:16:42;99645.97;;;2.14;nan
21545;BME280;10933;50.754;11.508;2023-12-04T09:19:09;99653.50;;;2.31;nan
21545;BME280;10933;50.754;11.508;2023-12-04T09:21:35;99667.59;;;2.60;nan
21545;BME280;10933;50.754;11.508;2023-12-04T09:24:05;99672.13;;;3.07;nan
21545;BME280;10933;50.754;11.508;2023-12-04T09:26:31;99672.78;;;3.29;nan
21545;BME280;10933;50.754;11.508;2023-12-04T09:28:58;99665.22;;;3.39;nan
21545;BME280;10933;50.754;11.508;2023-12-04T09:31:25;99659.66;;;3.21;nan
21545;BME280;10933;50.754;11.508;2023-12-04T09:33:51;99654.13;;;2.68;nan
21545;BME280;10933;50.754;11.508;2023-12-04T09:36:17;99661.03;;;2.56;nan
21545;BME280;10933;50.754;11.508;2023-12-04T09:38:47;99668.44;;;3.15;nan
21545;BME280;10933;50.754;11.508;2023-12-04T09:41:15;99663.91;;;3.09;nan
21545;BME280;10933;50.754;11.508;2023-12-04T09:43:45;99670.16;;;3.42;nan
21545;BME280;10933;50.754;11.508;2023-12-04T09:46:12;99654.59;;;3.52;nan
21545;BME280;10933;50.754;11.508;2023-12-04T09:48:42;99670.63;;;4.38;nan
21545;BME280;10933;50.754;11.508;2023-12-04T09:51:11;99665.47;;;4.50;nan
21545;BME280;10933;50.754;11.508;2023-12-04T09:53:39;99659.06;;;5.22;nan
21545;BME280;10933;50.754;11.508;2023-12-04T09:56:08;99662.22;;;5.76;nan
21545;BME280;10933;50.754;11.508;2023-12-04T09:58:39;99638.25;;;5.56;nan
21545;BME280;10933;50.754;11.508;2023-12-04T10:01:07;99647.38;;;7.21;nan
21545;BME280;10933;50.754;11.508;2023-12-04T10:03:35;99607.16;;;7.75;nan
21545;BME280;10933;50.754;11.508;2023-12-04T10:06:03;99588.00;;;7.59;nan
21545;BME280;10933;50.754;11.508;2023-12-04T10:08:30;99561.22;;;6.99;nan
21545;BME280;10933;50.754;11.508;2023-12-04T10:10:56;99562.47;;;6.12;nan
21545;BME280;10933;50.754;11.508;2023-12-04T10:13:22;99576.91;;;5.86;nan
21545;BME280;10933;50.754;11.508;2023-12-04T10:15:50;99587.81;;;6.09;nan
21545;BME280;10933;50.754;11.508;2023-12-04T10:18:30;99594.19;;;5.83;nan
21545;BME280;10933;50.754;11.508;2023-12-04T10:20:58;99582.22;;;5.93;nan
21545;BME280;10933;50.754;11.508;2023-12-04T10:23:44;99580.00;;;5.58;nan
21545;BME280;10933;50.754;11.508;2023-12-04T10:26:14;99578.72;;;5.04;nan
21545;BME280;10933;50.754;11.508;2023-12-04T10:28:59;99580.09;;;5.13;nan
21545;BME280;10933;50.754;11.508;2023-12-04T10:31:37;99592.84;;;5.49;nan
21545;BME280;10933;50.754;11.508;2023-12-04T10:34:03;99587.88;;;5.53;nan
21545;BME280;10933;50.754;11.508;2023-12-04T10:36:30;99591.63;;;5.70;nan
21545;BME280;10933;50.754;11.508;2023-12-04T10:39:00;99582.44;;;5.91;nan
21545;BME280;10933;50.754;11.508;2023-12-04T10:41:27;99568.09;;;5.79;nan
21545;BME280;10933;50.754;11.508;2023-12-04T10:43:53;99557.94;;;5.87;nan
21545;BME280;10933;50.754;11.508;2023-12-04T10:46:21;99562.16;;;5.77;nan
21545;BME280;10933;50.754;11.508;2023-12-04T10:48:48;99561.56;;;5.50;nan
21545;BME280;10933;50.754;11.508;2023-12-04T10:51:17;99568.56;;;6.19;nan
21545;BME280;10933;50.754;11.508;2023-12-04T10:53:43;99570.75;;;6.65;nan
21545;BME280;10933;50.754;11.508;2023-12-04T10:56:14;99568.41;;;7.17;nan
21545;BME280;10933;50.754;11.508;2023-12-04T10:58:43;99549.22;;;7.02;nan
21545;BME280;10933;50.754;11.508;2023-12-04T11:01:11;99542.41;;;7.18;nan
21545;BME280;10933;50.754;11.508;2023-12-04T11:03:44;99542.38;;;8.06;nan
21545;BME280;10933;50.754;11.508;2023-12-04T11:06:12;99540.75;;;7.82;nan
21545;BME280;10933;50.754;11.508;2023-12-04T11:08:42;99528.25;;;7.52;nan
21545;BME280;10933;50.754;11.508;2023-12-04T11:11:57;99537.91;;;7.42;nan
21545;BME280;10933;50.754;11.508;2023-12-04T11:14:15;99554.69;;;7.49;nan
21545;BME280;10933;50.754;11.508;2023-12-04T11:16:48;99554.41;;;7.92;nan
21545;BME280;10933;50.754;11.508;2023-12-04T11:19:20;99522.47;;;7.25;nan
21545;BME280;10933;50.754;11.508;2023-12-04T11:21:50;99542.28;;;7.78;nan
21545;BME280;10933;50.754;11.508;2023-12-04T11:24:19;99513.59;;;7.36;nan
21545;BME280;10933;50.754;11.508;2023-12-04T11:26:47;99510.47;;;7.28;nan
21545;BME280;10933;50.754;11.508;2023-12-04T11:29:15;99513.59;;;7.13;nan
21545;BME280;10933;50.754;11.508;2023-12-04T11:31:43;99503.84;;;6.70;nan
21545;BME280;10933;50.754;11.508;2023-12-04T11:34:09;99494.63;;;6.66;nan
21545;BME280;10933;50.754;11.508;2023-12-04T11:36:38;99502.84;;;6.35;nan
21545;BME280;10933;50.754;11.508;2023-12-04T11:39:10;99513.63;;;6.46;nan
21545;BME280;10933;50.754;11.508;2023-12-04T11:41:37;99514.22;;;6.67;nan
21545;BME280;10933;50.754;11.508;2023-12-04T11:44:03;99506.28;;;6.42;nan
21545;BME280;10933;50.754;11.508;2023-12-04T11:46:30;99490.09;;;5.75;nan
21545;BME280;10933;50.754;11.508;2023-12-04T11:49:27;99497.81;;;5.65;nan
21545;BME280;10933;50.754;11.508;2023-12-04T11:51:57;99503.97;;;5.90;nan
21545;BME280;10933;50.754;11.508;2023-12-04T11:54:25;99505.50;;;6.23;nan
21545;BME280;10933;50.754;11.508;2023-12-04T11:59:37;99476.84;;;7.14;nan
21545;BME280;10933;50.754;11.508;2023-12-04T12:02:08;99465.56;;;7.47;nan
21545;BME280;10933;50.754;11.508;2023-12-04T12:04:34;99451.66;;;7.15;nan
21545;BME280;10933;50.754;11.508;2023-12-04T12:07:01;99431.44;;;6.89;nan
21545;BME280;10933;50.754;11.508;2023-12-04T12:09:29;99417.44;;;6.57;nan
21545;BME280;10933;50.754;11.508;2023-12-04T12:11:56;99411.63;;;6.48;nan
21545;BME280;10933;50.754;11.508;2023-12-04T12:14:22;99412.81;;;6.64;nan
21545;BME280;10933;50.754;11.508;2023-12-04T12:16:49;99391.88;;;6.42;nan
21545;BME280;10933;50.754;11.508;2023-12-04T12:19:15;99402.72;;;6.47;nan
21545;BME280;10933;50.754;11.508;2023-12-04T12:21:43;99391.38;;;6.04;nan
21545;BME280;10933;50.754;11.508;2023-12-04T12:24:12;99391.91;;;5.76;nan
21545;BME280;10933;50.754;11.508;2023-12-04T12:26:38;99368.78;;;5.63;nan
21545;BME280;10933;50.754;11.508;2023-12-04T12:29:04;99376.22;;;5.98;nan
21545;BME280;10933;50.754;11.508;2023-12-04T12:31:30;99374.41;;;6.40;nan
21545;BME280;10933;50.754;11.508;2023-12-04T12:33:56;99343.31;;;4.99;nan
21545;BME280;10933;50.754;11.508;2023-12-04T12:36:22;99371.38;;;5.51;nan
21545;BME280;10933;50.754;11.508;2023-12-04T12:38:49;99344.09;;;5.24;nan
21545;BME280;10933;50.754;11.508;2023-12-04T12:41:18;99348.41;;;5.62;nan
21545;BME280;10933;50.754;11.508;2023-12-04T12:43:46;99328.41;;;5.28;nan
21545;BME280;10933;50.754;11.508;2023-12-04T12:46:13;99329.53;;;4.95;nan
21545;BME280;10933;50.754;11.508;2023-12-04T12:48:39;99328.41;;;5.10;nan
21545;BME280;10933;50.754;11.508;2023-12-04T12:51:08;99341.91;;;5.33;nan
21545;BME280;10933;50.754;11.508;2023-12-04T12:53:37;99347.03;;;5.89;nan
21545;BME280;10933;50.754;11.508;2023-12-04T12:56:04;99318.00;;;5.20;nan
21545;BME280;10933;50.754;11.508;2023-12-04T12:58:31;99330.44;;;5.51;nan
21545;BME280;10933;50.754;11.508;2023-12-04T13:00:57;99336.50;;;5.76;nan
21545;BME280;10933;50.754;11.508;2023-12-04T13:03:23;99370.16;;;6.51;nan
21545;BME280;10933;50.754;11.508;2023-12-04T13:05:49;99328.84;;;6.28;nan
21545;BME280;10933;50.754;11.508;2023-12-04T13:08:16;99345.91;;;6.57;nan
21545;BME280;10933;50.754;11.508;2023-12-04T13:10:42;99350.75;;;6.90;nan
21545;BME280;10933;50.754;11.508;2023-12-04T13:13:11;99336.78;;;7.00;nan
21545;BME280;10933;50.754;11.508;2023-12-04T13:15:38;99358.31;;;6.93;nan
21545;BME280;10933;50.754;11.508;2023-12-04T13:18:04;99364.84;;;6.97;nan